Ridgeport, Indiana
Current Conditions -  °F | °C
As of 10:00 PM on Thursday 27 Nov 2014 (Local Time) from KBMG Reporting Station
Broken Clouds Broken Clouds  
Wind Chill: 19°   Ceiling: 1700
Heat Index: 25°   Visibility: 9mi
Dew Point: 20°   Wind: 5mph
Humidity: 81%   Direction: 270°W
Pressure: 30.41"   Gusts: NA
Location:  39.0306°N, 86.8553°W
Report Text: KBMG 280300Z AUTO 27004KT 9SM BKN017 M04/M07 A3041 RMK AO2 T10391067
Loading
Personal Weather Stations






























Interactive Weather Map New forecast layout! Learn more

10-Day Weather Forecast

Advertisements
Track Severe Weather on mobile